createdAt,value
2023-01-11T00:01:16.669Z,100615.75
2023-01-11T00:03:51.513Z,100617.34
2023-01-11T00:06:18.899Z,100607.34
2023-01-11T00:08:52.964Z,100617.63
2023-01-11T00:11:28.027Z,100617.63
2023-01-11T00:14:01.876Z,100607.34
2023-01-11T00:16:44.528Z,100613.28
2023-01-11T00:19:17.933Z,100593.97
2023-01-11T00:21:50.924Z,100611.38
2023-01-11T00:24:17.977Z,100604.22
2023-01-11T00:26:53.849Z,100603.41
2023-01-11T00:29:20.680Z,100582.91
2023-01-11T00:31:58.074Z,100594.34
2023-01-11T00:34:34.326Z,100588.94
2023-01-11T00:37:01.159Z,100584.47
2023-01-11T00:39:35.086Z,100597.75
2023-01-11T00:42:20.503Z,100578.34
2023-01-11T00:45:11.898Z,100580.75
2023-01-11T00:47:57.235Z,100566.38
2023-01-11T00:50:36.869Z,100562.78
2023-01-11T00:53:10.956Z,100579.44
2023-01-11T00:55:38.114Z,100575.69
2023-01-11T00:58:10.964Z,100575.56
2023-01-11T01:00:45.267Z,100573.53
2023-01-11T01:03:18.924Z,100576.00
2023-01-11T01:05:53.017Z,100559.94
2023-01-11T01:08:19.846Z,100567.03
2023-01-11T01:10:54.994Z,100565.25
2023-01-11T01:13:40.435Z,100553.66
2023-01-11T01:16:22.101Z,100560.47
2023-01-11T01:18:48.898Z,100555.03
2023-01-11T01:21:26.588Z,100553.22
2023-01-11T01:23:54.748Z,100556.13
2023-01-11T01:26:29.043Z,100549.88
2023-01-11T01:28:56.063Z,100548.91
2023-01-11T01:31:30.653Z,100546.84
2023-01-11T01:33:58.119Z,100555.69
2023-01-11T01:36:32.491Z,100544.31
2023-01-11T01:39:00.790Z,100548.91
2023-01-11T01:41:29.394Z,100544.31
2023-01-11T01:44:06.019Z,100541.53
2023-01-11T01:46:34.588Z,100551.09
2023-01-11T01:49:16.152Z,100552.91
2023-01-11T01:52:01.962Z,100549.50
2023-01-11T01:54:43.433Z,100549.38
2023-01-11T01:57:20.396Z,100540.72
2023-01-11T01:59:58.963Z,100545.06
2023-01-11T02:02:26.505Z,100533.44
2023-01-11T02:05:02.925Z,100551.94
2023-01-11T02:07:39.952Z,100537.09
2023-01-11T02:10:17.058Z,100534.53
2023-01-11T02:12:51.997Z,100527.44
2023-01-11T02:15:35.062Z,100530.91
2023-01-11T02:18:02.118Z,100525.72
2023-01-11T02:20:59.980Z,100518.47
2023-01-11T02:23:40.329Z,100520.16
2023-01-11T02:26:31.024Z,100515.81
2023-01-11T02:29:21.037Z,100509.53
2023-01-11T02:32:03.631Z,100516.44
2023-01-11T02:34:50.027Z,100502.41
2023-01-11T02:37:16.958Z,100508.47
2023-01-11T02:40:20.074Z,100512.81
2023-01-11T02:43:17.968Z,100503.75
2023-01-11T02:46:30.110Z,100506.16
2023-01-11T02:49:31.068Z,100506.28
2023-01-11T02:52:10.938Z,100511.47
2023-01-11T02:54:46.945Z,100501.59
2023-01-11T02:57:22.019Z,100512.09
2023-01-11T02:59:56.957Z,100507.50
2023-01-11T03:02:24.430Z,100504.72
2023-01-11T03:04:58.019Z,100497.59
2023-01-11T03:07:46.561Z,100489.38
2023-01-11T03:10:44.936Z,100503.41
2023-01-11T03:13:40.601Z,100501.47
2023-01-11T03:16:58.277Z,100500.03
2023-01-11T03:19:36.684Z,100486.88
2023-01-11T03:22:43.041Z,100497.13
2023-01-11T03:25:16.091Z,100487.94
2023-01-11T03:28:15.147Z,100477.81
2023-01-11T03:31:07.872Z,100494.97
2023-01-11T03:33:49.093Z,100491.34
2023-01-11T03:36:41.056Z,100498.97
2023-01-11T03:39:24.988Z,100490.84
2023-01-11T03:41:57.450Z,100488.41
2023-01-11T03:44:33.954Z,100477.53
2023-01-11T03:47:11.289Z,100498.47
2023-01-11T03:49:50.003Z,100504.25
2023-01-11T03:52:20.603Z,100499.78
2023-01-11T03:54:54.055Z,100495.78
2023-01-11T03:57:29.691Z,100492.63
2023-01-11T04:00:02.979Z,100500.84
2023-01-11T04:02:36.390Z,100489.81
2023-01-11T04:05:11.155Z,100494.50
2023-01-11T04:07:38.460Z,100499.34
2023-01-11T04:10:27.047Z,100512.41
2023-01-11T04:13:04.035Z,100506.94
2023-01-11T04:15:39.129Z,100508.53
2023-01-11T04:18:20.072Z,100494.50
2023-01-11T04:20:53.144Z,100497.22
2023-01-11T04:23:20.598Z,100507.03
2023-01-11T04:25:49.135Z,100508.72
2023-01-11T04:28:23.080Z,100511.38
2023-01-11T04:30:54.836Z,100506.91
2023-01-11T04:33:28.015Z,100512.97
2023-01-11T04:36:04.801Z,100489.25
2023-01-11T04:38:38.009Z,100497.81
2023-01-11T04:41:25.059Z,100502.31
2023-01-11T04:44:02.103Z,100506.78
2023-01-11T04:46:37.266Z,100515.63
2023-01-11T04:49:11.141Z,100523.72
2023-01-11T04:51:39.555Z,100511.38
2023-01-11T04:54:13.012Z,100531.47
2023-01-11T04:56:49.098Z,100526.16
2023-01-11T04:59:23.059Z,100534.94
2023-01-11T05:01:49.792Z,100533.28
2023-01-11T05:04:23.166Z,100539.44
2023-01-11T05:06:49.922Z,100537.38
2023-01-11T05:09:25.076Z,100523.09
2023-01-11T05:11:58.105Z,100518.75
2023-01-11T05:14:25.125Z,100526.59
2023-01-11T05:17:06.032Z,100514.97
2023-01-11T05:19:39.073Z,100526.59
2023-01-11T05:22:12.123Z,100525.63
2023-01-11T05:24:39.150Z,100525.63
2023-01-11T05:27:13.098Z,100534.34
2023-01-11T05:29:46.031Z,100534.59
2023-01-11T05:32:39.044Z,100554.69
2023-01-11T05:35:06.060Z,100552.75
2023-01-11T05:37:39.082Z,100553.44
2023-01-11T05:40:07.217Z,100538.31
2023-01-11T05:42:40.103Z,100532.97
2023-01-11T05:45:32.244Z,100528.78
2023-01-11T05:48:13.129Z,100542.09
2023-01-11T05:50:46.328Z,100535.19
2023-01-11T05:53:13.174Z,100551.16
2023-01-11T05:55:46.077Z,100549.34
2023-01-11T05:58:13.111Z,100553.81
2023-01-11T06:00:45.980Z,100563.63
2023-01-11T06:03:14.365Z,100564.47
2023-01-11T06:05:48.061Z,100562.88
2023-01-11T06:08:15.488Z,100568.78
2023-01-11T06:10:50.036Z,100571.91
2023-01-11T06:13:26.687Z,100569.00
2023-01-11T06:16:16.138Z,100569.59
2023-01-11T06:18:59.376Z,100566.34
2023-01-11T06:21:34.156Z,100567.75
2023-01-11T06:24:01.194Z,100560.75
2023-01-11T06:26:37.264Z,100565.97
2023-01-11T06:29:11.184Z,100567.66
2023-01-11T06:31:46.916Z,100577.34
2023-01-11T06:34:21.138Z,100582.66
2023-01-11T06:36:55.205Z,100583.50
2023-01-11T06:39:28.102Z,100577.06
2023-01-11T06:41:59.260Z,100587.59
2023-01-11T06:44:32.178Z,100575.25
2023-01-11T06:46:59.165Z,100574.28
2023-01-11T06:49:32.220Z,100579.59
2023-01-11T06:51:59.132Z,100581.44
2023-01-11T06:54:32.267Z,100586.91
2023-01-11T06:56:58.983Z,100591.25
2023-01-11T06:59:25.825Z,100587.84
2023-01-11T07:01:59.367Z,100586.78
2023-01-11T07:04:27.182Z,100600.84
2023-01-11T07:07:03.154Z,100600.09
2023-01-11T07:09:29.955Z,100615.00
2023-01-11T07:12:07.111Z,100611.56
2023-01-11T07:14:34.322Z,100617.75
2023-01-11T07:17:14.119Z,100626.38
2023-01-11T07:19:40.838Z,100625.50
2023-01-11T07:22:16.755Z,100618.50
2023-01-11T07:24:43.888Z,100624.69
2023-01-11T07:27:17.124Z,100627.34
2023-01-11T07:29:50.145Z,100623.06
2023-01-11T07:32:16.888Z,100638.19
2023-01-11T07:34:50.273Z,100641.00
2023-01-11T07:37:28.909Z,100651.91
2023-01-11T07:40:03.050Z,100646.00
2023-01-11T07:42:48.557Z,100644.19
2023-01-11T07:45:22.164Z,100642.47
2023-01-11T07:47:54.941Z,100663.78
2023-01-11T07:50:28.125Z,100662.09
2023-01-11T07:53:11.747Z,100665.50
2023-01-11T07:55:40.091Z,100684.22
2023-01-11T07:58:15.190Z,100699.38
2023-01-11T08:00:48.287Z,100687.88
2023-01-11T08:03:15.040Z,100688.00
2023-01-11T08:05:48.103Z,100680.00
2023-01-11T08:08:22.314Z,100677.72
2023-01-11T08:11:13.413Z,100678.69
2023-01-11T08:14:05.132Z,100685.81
2023-01-11T08:16:47.252Z,100694.78
2023-01-11T08:19:20.335Z,100695.88
2023-01-11T08:21:51.662Z,100708.47
2023-01-11T08:24:25.126Z,100713.91
2023-01-11T08:26:53.285Z,100713.31
2023-01-11T08:29:27.249Z,100725.66
2023-01-11T08:31:54.213Z,100715.25
2023-01-11T08:34:21.156Z,100725.91
2023-01-11T08:36:58.135Z,100722.63
2023-01-11T08:39:25.628Z,100731.59
2023-01-11T08:41:59.815Z,100732.66
2023-01-11T08:44:34.474Z,100736.44
2023-01-11T08:47:09.148Z,100741.97
2023-01-11T08:49:35.848Z,100751.06
2023-01-11T08:52:09.076Z,100741.50
2023-01-11T08:54:35.893Z,100749.88
2023-01-11T08:57:09.238Z,100761.59
2023-01-11T08:59:42.188Z,100763.41
2023-01-11T09:02:16.197Z,100776.72
2023-01-11T09:04:43.004Z,100779.47
2023-01-11T09:07:16.322Z,100789.28
2023-01-11T09:09:43.006Z,100788.44
2023-01-11T09:12:16.392Z,100792.91
2023-01-11T09:14:43.311Z,100808.88
2023-01-11T09:17:23.357Z,100819.75
2023-01-11T09:20:06.199Z,100818.91
2023-01-11T09:22:34.258Z,100817.69
2023-01-11T09:25:07.190Z,100827.59
2023-01-11T09:27:40.336Z,100839.44
2023-01-11T09:30:14.241Z,100835.44
2023-01-11T09:32:41.533Z,100842.31
2023-01-11T09:35:15.361Z,100846.81
2023-01-11T09:37:52.234Z,100846.19
2023-01-11T09:40:29.205Z,100849.69
2023-01-11T09:43:01.026Z,100841.81
2023-01-11T09:45:37.229Z,100844.59
2023-01-11T09:48:26.884Z,100844.84
2023-01-11T09:51:05.486Z,100849.31
2023-01-11T09:53:45.258Z,100852.09
2023-01-11T09:56:35.730Z,100855.59
2023-01-11T09:59:16.256Z,100851.47
2023-01-11T10:02:10.403Z,100850.63
2023-01-11T10:05:03.356Z,100844.06
2023-01-11T10:18:26.398Z,100845.81
2023-01-11T10:18:29.957Z,100846.66
2023-01-11T10:20:41.387Z,100853.81
2023-01-11T10:23:23.191Z,100866.25
2023-01-11T10:25:56.933Z,100865.28
2023-01-11T10:28:46.237Z,100859.00
2023-01-11T10:31:58.499Z,100881.22
2023-01-11T10:34:31.331Z,100874.09
2023-01-11T10:37:34.267Z,100882.19
2023-01-11T10:40:34.285Z,100882.06
2023-01-11T10:43:16.377Z,100883.09
2023-01-11T10:46:00.063Z,100874.66
2023-01-11T10:48:41.320Z,100877.56
2023-01-11T10:51:40.275Z,100885.00
2023-01-11T10:54:16.868Z,100881.84
2023-01-11T10:57:02.987Z,100875.28
2023-01-11T11:00:03.294Z,100883.75
2023-01-11T11:02:58.201Z,100891.66
2023-01-11T11:05:55.334Z,100889.00
2023-01-11T11:08:41.204Z,100883.09
2023-01-11T11:11:21.967Z,100888.19
2023-01-11T11:14:09.280Z,100898.59
2023-01-11T11:17:06.945Z,100892.84
2023-01-11T11:19:41.824Z,100887.41
2023-01-11T11:22:21.535Z,100884.94
2023-01-11T11:25:04.789Z,100881.47
2023-01-11T11:27:41.322Z,100891.88
2023-01-11T11:30:11.952Z,100885.06
2023-01-11T11:32:49.213Z,100887.63
2023-01-11T11:35:41.069Z,100896.38
2023-01-11T11:38:28.266Z,100903.31
2023-01-11T11:41:06.807Z,100895.41
2023-01-11T11:43:35.848Z,100905.66
2023-01-11T11:46:21.071Z,100918.47
2023-01-11T11:49:27.272Z,100918.13
2023-01-11T11:51:54.596Z,100907.22
2023-01-11T11:54:39.425Z,100921.97
2023-01-11T11:57:28.663Z,100923.19
2023-01-11T12:00:16.396Z,100926.53
2023-01-11T12:02:55.586Z,100919.56
2023-01-11T12:05:29.502Z,100916.19
2023-01-11T12:08:12.425Z,100900.59
2023-01-11T12:11:17.517Z,100914.16
2023-01-11T12:13:57.737Z,100898.50
2023-01-11T12:16:38.701Z,100930.91
2023-01-11T12:19:33.465Z,100910.34
2023-01-11T12:22:34.341Z,100907.56
2023-01-11T12:25:28.911Z,100914.84
2023-01-11T12:28:15.284Z,100910.59
2023-01-11T12:31:14.492Z,100914.47
2023-01-11T12:33:54.998Z,100912.88
2023-01-11T12:37:02.328Z,100911.78
2023-01-11T12:39:35.221Z,100912.63
2023-01-11T12:42:23.285Z,100911.16
2023-01-11T12:45:14.901Z,100915.28
2023-01-11T12:48:26.454Z,100921.09
2023-01-11T12:51:32.034Z,100923.16
2023-01-11T12:54:37.243Z,100934.69
2023-01-11T12:57:10.279Z,100933.00
2023-01-11T12:59:59.324Z,100935.31
2023-01-11T13:02:48.246Z,100938.06
2023-01-11T13:05:32.283Z,100936.75
2023-01-11T13:08:31.268Z,100935.66
2023-01-11T13:11:18.400Z,100932.66
2023-01-11T13:13:56.977Z,100938.56
2023-01-11T13:17:22.499Z,100920.38
2023-01-11T13:20:26.384Z,100930.03
2023-01-11T13:23:06.391Z,100925.44
2023-01-11T13:25:38.923Z,100922.94
2023-01-11T13:28:39.386Z,100930.81
2023-01-11T13:31:14.238Z,100933.88
2023-01-11T13:33:54.338Z,100935.16
2023-01-11T13:36:43.472Z,100938.41
2023-01-11T13:39:21.595Z,100937.78
2023-01-11T13:42:01.852Z,100934.69
2023-01-11T13:44:37.116Z,100954.66
2023-01-11T13:47:18.435Z,100964.06
2023-01-11T13:50:01.448Z,100954.50
2023-01-11T13:52:58.416Z,100953.72
2023-01-11T13:55:26.446Z,100952.56
2023-01-11T13:58:21.334Z,100949.97
2023-01-11T14:00:55.572Z,100963.13
2023-01-11T14:03:49.108Z,100954.50
2023-01-11T14:06:25.932Z,100952.81
2023-01-11T14:09:21.399Z,100941.31
2023-01-11T14:12:08.861Z,100934.75
2023-01-11T14:14:51.348Z,100943.72
2023-01-11T14:17:55.655Z,100956.53
2023-01-11T14:20:58.549Z,100957.59
2023-01-11T14:23:48.382Z,100962.63
2023-01-11T14:26:52.574Z,100969.63
2023-01-11T14:29:56.589Z,100972.53
2023-01-11T14:32:55.509Z,100973.59
2023-01-11T14:36:06.602Z,100978.59
2023-01-11T14:38:59.377Z,100977.00
2023-01-11T14:41:47.387Z,100975.31
2023-01-11T14:44:36.267Z,100971.06
2023-01-11T14:47:41.521Z,100965.63
2023-01-11T14:50:33.371Z,100961.38
2023-01-11T14:53:03.858Z,100953.97
2023-01-11T14:55:41.481Z,100958.03
2023-01-11T14:58:14.371Z,100953.38
2023-01-11T15:00:47.750Z,100968.34
2023-01-11T15:03:25.392Z,100947.84
2023-01-11T15:05:59.073Z,100952.09
2023-01-11T15:22:02.765Z,100958.97
2023-01-11T15:24:39.903Z,100974.16
2023-01-11T15:27:13.598Z,100978.84
2023-01-11T15:29:43.266Z,100987.69
2023-01-11T15:32:30.823Z,100978.84
2023-01-11T15:35:38.972Z,100988.19
2023-01-11T15:38:16.131Z,100993.28
2023-01-11T19:32:23.777Z,100891.06
2023-01-11T21:05:30.481Z,100838.56
2023-01-11T21:08:50.779Z,100847.47
2023-01-11T21:32:27.813Z,100832.84
2023-01-11T21:55:34.028Z,100798.44
2023-01-11T21:58:32.787Z,100777.78
2023-01-11T22:17:59.334Z,100780.13
2023-01-11T23:10:38.637Z,100788.50
2023-01-11T23:13:35.697Z,100798.06
2023-01-11T23:16:25.477Z,100795.53
2023-01-11T23:19:16.380Z,100793.19
2023-01-11T23:24:54.010Z,100792.25
2023-01-11T23:27:34.104Z,100785.84
2023-01-11T23:30:14.192Z,100787.56
2023-01-11T23:32:49.386Z,100779.91
2023-01-11T23:35:28.388Z,100772.81
2023-01-11T23:47:28.098Z,100778.75
2023-01-11T23:50:09.840Z,100791.63
2023-01-11T23:59:26.265Z,100777.91
